createdAt,value
2023-05-12T00:02:06.701Z,3.60
2023-05-12T00:04:34.143Z,4.05
2023-05-12T00:07:01.553Z,3.63
2023-05-12T00:09:28.955Z,3.83
2023-05-12T00:11:56.492Z,4.35
2023-05-12T00:14:23.900Z,3.42
2023-05-12T00:16:52.539Z,4.30
2023-05-12T00:19:21.238Z,3.78
2023-05-12T00:21:48.637Z,3.83
2023-05-12T00:24:16.048Z,4.13
2023-05-12T00:26:43.431Z,5.05
2023-05-12T00:29:10.900Z,4.50
2023-05-12T00:31:38.322Z,3.70
2023-05-12T00:34:06.278Z,4.32
2023-05-12T00:36:53.571Z,3.45
2023-05-12T00:39:21.983Z,3.83
2023-05-12T00:41:50.514Z,4.28
2023-05-12T00:44:18.787Z,3.97
2023-05-12T00:46:46.200Z,4.50
2023-05-12T00:49:13.711Z,4.45
2023-05-12T00:51:41.098Z,4.75
2023-05-12T00:54:08.846Z,4.20
2023-05-12T00:56:39.619Z,4.28
2023-05-12T00:59:09.409Z,3.78
2023-05-12T01:01:40.257Z,5.07
2023-05-12T01:04:07.961Z,3.95
2023-05-12T01:09:13.419Z,4.05
2023-05-12T01:11:40.957Z,4.32
2023-05-12T01:14:08.957Z,4.43
2023-05-12T01:16:43.773Z,4.35
2023-05-12T01:19:23.100Z,4.20
2023-05-12T01:21:50.848Z,4.22
2023-05-12T01:24:19.379Z,4.25
2023-05-12T01:26:46.785Z,4.18
2023-05-12T01:29:14.211Z,4.55
2023-05-12T01:31:41.863Z,4.22
2023-05-12T01:34:09.384Z,4.32
2023-05-12T01:36:36.732Z,5.15
2023-05-12T01:39:04.084Z,4.57
2023-05-12T01:41:31.424Z,4.53
2023-05-12T01:43:58.777Z,4.70
2023-05-12T01:46:26.802Z,4.30
2023-05-12T01:48:58.855Z,4.50
2023-05-12T01:51:27.005Z,4.82
2023-05-12T01:53:56.323Z,4.93
2023-05-12T01:56:24.140Z,6.07
2023-05-12T01:58:51.530Z,4.80
2023-05-12T02:01:19.126Z,4.70
2023-05-12T02:03:46.663Z,4.72
2023-05-12T02:06:15.217Z,5.78
2023-05-12T02:08:42.724Z,5.70
2023-05-12T02:11:10.149Z,5.93
2023-05-12T02:13:38.972Z,5.22
2023-05-12T02:16:07.292Z,5.43
2023-05-12T02:18:35.051Z,4.60
2023-05-12T02:21:25.073Z,4.57
2023-05-12T02:23:54.214Z,4.13
2023-05-12T02:26:21.929Z,4.63
2023-05-12T02:28:49.388Z,5.45
2023-05-12T02:31:17.288Z,5.03
2023-05-12T02:33:44.869Z,4.82
2023-05-12T02:36:12.347Z,5.95
2023-05-12T02:38:40.598Z,5.38
2023-05-12T02:41:08.629Z,5.13
2023-05-12T02:43:36.056Z,5.38
2023-05-12T02:46:04.094Z,5.55
2023-05-12T02:48:31.721Z,5.78
2023-05-12T02:50:59.348Z,5.35
2023-05-12T02:53:27.785Z,7.45
2023-05-12T02:55:56.070Z,5.32
2023-05-12T02:58:23.604Z,10.07
2023-05-12T03:00:59.876Z,5.32
2023-05-12T03:03:35.053Z,11.25
2023-05-12T03:06:02.649Z,9.63
2023-05-12T03:08:30.105Z,8.40
2023-05-12T03:10:57.469Z,7.05
2023-05-12T03:13:25.793Z,7.40
2023-05-12T03:15:53.134Z,6.80
2023-05-12T03:18:20.787Z,8.23
2023-05-12T03:20:48.421Z,7.05
2023-05-12T03:23:17.130Z,7.70
2023-05-12T03:25:44.755Z,6.75
2023-05-12T03:28:13.180Z,6.60
2023-05-12T03:30:41.343Z,6.10
2023-05-12T03:33:09.514Z,6.50
2023-05-12T03:35:37.165Z,7.07
2023-05-12T03:38:04.555Z,9.23
2023-05-12T03:40:31.879Z,7.38
2023-05-12T03:42:59.306Z,7.80
2023-05-12T03:45:26.726Z,6.95
2023-05-12T03:47:54.369Z,7.35
2023-05-12T03:50:21.917Z,6.43
2023-05-12T03:52:49.786Z,6.97
2023-05-12T03:55:17.140Z,6.28
2023-05-12T03:57:44.470Z,8.10
2023-05-12T04:00:12.673Z,6.80
2023-05-12T04:02:52.440Z,7.05
2023-05-12T04:05:19.882Z,5.80
2023-05-12T04:07:47.255Z,5.85
2023-05-12T04:10:14.706Z,6.00
2023-05-12T04:12:42.364Z,5.35
2023-05-12T04:15:10.356Z,5.07
2023-05-12T04:17:37.849Z,5.13
2023-05-12T04:20:05.767Z,4.53
2023-05-12T04:22:45.276Z,4.28
2023-05-12T04:25:12.700Z,4.53
2023-05-12T04:27:41.392Z,4.38
2023-05-12T04:30:09.390Z,4.38
2023-05-12T04:32:38.661Z,4.90
2023-05-12T04:35:07.557Z,4.32
2023-05-12T04:37:35.253Z,4.30
2023-05-12T04:40:03.257Z,4.20
2023-05-12T04:42:32.240Z,3.22
2023-05-12T04:44:59.837Z,3.60
2023-05-12T04:47:27.501Z,3.65
2023-05-12T04:49:54.838Z,3.42
2023-05-12T04:52:24.572Z,3.60
2023-05-12T04:54:52.457Z,3.60
2023-05-12T04:57:19.882Z,3.38
2023-05-12T04:59:47.759Z,3.85
2023-05-12T05:02:15.188Z,3.28
2023-05-12T05:04:42.742Z,2.83
2023-05-12T05:07:10.277Z,2.97
2023-05-12T05:09:37.665Z,3.10
2023-05-12T05:12:07.139Z,2.88
2023-05-12T05:14:34.896Z,2.78
2023-05-12T05:17:02.759Z,2.58
2023-05-12T05:22:03.659Z,2.95
2023-05-12T05:24:30.953Z,2.67
2023-05-12T05:26:59.891Z,2.50
2023-05-12T05:29:27.466Z,2.45
2023-05-12T05:31:55.287Z,2.33
2023-05-12T07:22:39.790Z,1.45
2023-05-12T07:25:08.352Z,1.02
2023-05-12T07:27:35.940Z,1.50
2023-05-12T07:30:03.538Z,1.55
2023-05-12T07:32:33.352Z,1.20
2023-05-12T07:35:01.074Z,1.27
2023-05-12T07:37:28.657Z,1.20
2023-05-12T07:39:56.269Z,1.40
2023-05-12T07:42:24.007Z,1.20
2023-05-12T07:44:51.475Z,1.50
2023-05-12T07:47:18.961Z,1.27
2023-05-12T07:49:46.520Z,1.40
2023-05-12T07:52:14.150Z,1.23
2023-05-12T07:54:41.648Z,1.20
2023-05-12T07:57:09.088Z,1.30
2023-05-12T07:59:36.596Z,1.27
2023-05-12T08:02:04.251Z,1.27
2023-05-12T08:04:32.018Z,1.30
2023-05-12T08:06:59.584Z,0.88
2023-05-12T08:09:27.265Z,1.42
2023-05-12T08:11:54.843Z,1.88
2023-05-12T08:14:22.968Z,1.33
2023-05-12T08:16:50.583Z,1.42
2023-05-12T08:19:18.213Z,1.83
2023-05-12T08:21:46.025Z,1.70
2023-05-12T08:24:13.825Z,1.30
2023-05-12T08:26:41.725Z,1.38
2023-05-12T08:29:10.043Z,1.52
2023-05-12T08:31:38.836Z,1.85
2023-05-12T08:34:10.260Z,1.85
2023-05-12T08:36:40.371Z,1.35
2023-05-12T08:39:10.580Z,1.30
2023-05-12T08:46:48.566Z,1.55
2023-05-12T08:49:18.544Z,1.67
2023-05-12T08:51:57.266Z,2.10
2023-05-12T08:54:28.237Z,1.30
2023-05-12T08:59:30.032Z,1.63
2023-05-12T09:01:59.504Z,1.67
2023-05-12T09:04:26.962Z,1.88
2023-05-12T09:06:55.926Z,1.58
2023-05-12T09:09:23.696Z,1.90
2023-05-12T09:11:52.530Z,1.92
2023-05-12T09:14:25.856Z,1.52
2023-05-12T09:16:58.955Z,1.73
2023-05-12T09:19:26.636Z,2.17
2023-05-12T09:21:54.214Z,1.63
2023-05-12T09:24:22.748Z,1.65
2023-05-12T09:26:54.482Z,1.65
2023-05-12T09:29:31.226Z,1.77
2023-05-12T09:32:02.681Z,1.70
2023-05-12T09:34:38.821Z,1.40
2023-05-12T09:37:08.103Z,2.38
2023-05-12T09:39:36.887Z,1.50
2023-05-12T09:42:05.345Z,1.95
2023-05-12T09:44:32.905Z,1.48
2023-05-12T09:47:08.756Z,1.27
2023-05-12T09:49:36.741Z,1.33
2023-05-12T09:52:05.377Z,1.38
2023-05-12T09:54:34.649Z,1.70
2023-05-12T09:57:05.309Z,1.50
2023-05-12T09:59:36.582Z,1.60
2023-05-12T10:02:06.881Z,1.30
2023-05-12T10:04:51.748Z,1.48
2023-05-12T10:07:22.943Z,1.48
2023-05-12T10:12:17.987Z,1.08
2023-05-12T10:14:46.195Z,1.40
2023-05-12T10:17:13.843Z,1.40
2023-05-12T10:19:42.410Z,1.75
2023-05-12T10:22:11.805Z,1.67
2023-05-12T10:24:40.030Z,1.85
2023-05-12T10:27:07.903Z,1.88
2023-05-12T10:29:35.660Z,1.60
2023-05-12T10:32:03.184Z,2.30
2023-05-12T10:34:33.545Z,1.95
2023-05-12T10:37:01.615Z,1.60
2023-05-12T10:39:30.480Z,1.38
2023-05-12T10:42:02.927Z,1.85
2023-05-12T10:44:30.406Z,1.80
2023-05-12T10:47:01.972Z,1.90
2023-05-12T10:49:37.909Z,2.20
2023-05-12T10:52:05.937Z,1.70
2023-05-12T10:54:44.808Z,2.13
2023-05-12T10:57:17.888Z,3.85
2023-05-12T10:59:51.987Z,3.55
2023-05-12T11:02:27.491Z,1.45
2023-05-12T11:04:58.851Z,2.13
2023-05-12T11:07:30.612Z,2.08
2023-05-12T11:10:01.774Z,1.90
2023-05-12T11:12:37.606Z,2.83
2023-05-12T11:15:07.146Z,2.08
2023-05-12T11:20:23.961Z,2.53
2023-05-12T11:22:52.124Z,1.70
2023-05-12T11:25:20.411Z,1.73
2023-05-12T11:27:51.043Z,1.65
2023-05-12T11:30:20.198Z,1.75
2023-05-12T11:32:48.060Z,1.85
2023-05-12T11:35:18.942Z,1.63
2023-05-12T11:37:47.132Z,1.40
2023-05-12T11:47:51.611Z,1.70
2023-05-12T11:50:23.484Z,1.88
2023-05-12T11:52:52.729Z,1.80
2023-05-12T11:55:23.042Z,1.80
2023-05-12T11:58:01.479Z,1.67
2023-05-12T12:00:32.992Z,1.73
2023-05-12T12:03:10.302Z,1.90
2023-05-12T12:05:38.819Z,1.73
2023-05-12T12:08:08.545Z,2.25
2023-05-12T12:10:36.328Z,2.08
2023-05-12T12:13:04.096Z,2.20
2023-05-12T12:15:31.855Z,2.10
2023-05-12T12:17:59.866Z,1.88
2023-05-12T12:20:27.621Z,2.08
2023-05-12T12:22:55.350Z,1.60
2023-05-12T12:25:23.385Z,1.75
2023-05-12T12:27:51.251Z,2.00
2023-05-12T12:30:19.044Z,1.83
2023-05-12T12:32:46.811Z,1.88
2023-05-12T12:35:14.704Z,1.70
2023-05-12T12:37:42.436Z,1.45
2023-05-12T12:40:12.045Z,1.50
2023-05-12T12:42:40.971Z,1.88
2023-05-12T12:45:10.298Z,2.25
2023-05-12T12:47:39.264Z,2.75
2023-05-12T12:50:10.365Z,2.08
2023-05-12T12:52:38.929Z,2.20
2023-05-12T12:55:07.965Z,1.67
2023-05-12T12:57:35.847Z,2.10
2023-05-12T13:00:05.121Z,2.00
2023-05-12T13:02:38.530Z,1.52
2023-05-12T13:05:07.557Z,2.10
2023-05-12T13:07:35.497Z,1.85
2023-05-12T13:10:04.726Z,2.28
2023-05-12T13:15:13.411Z,2.10
2023-05-12T13:17:41.211Z,2.60
2023-05-12T13:20:09.672Z,3.15
2023-05-12T13:22:37.886Z,2.30
2023-05-12T13:25:08.126Z,1.88
2023-05-12T13:27:36.819Z,1.90
2023-05-12T13:30:07.957Z,2.10
2023-05-12T13:32:36.081Z,1.88
2023-05-12T13:35:04.803Z,2.00
2023-05-12T13:37:32.847Z,1.70
2023-05-12T13:40:00.776Z,2.40
2023-05-12T13:42:28.613Z,1.92
2023-05-12T13:44:56.425Z,1.67
2023-05-12T13:47:27.175Z,2.10
2023-05-12T13:49:56.930Z,2.00
2023-05-12T13:52:24.770Z,2.20
2023-05-12T13:54:52.614Z,1.90
2023-05-12T13:57:21.214Z,2.20
2023-05-12T13:59:49.216Z,2.40
2023-05-12T14:02:17.041Z,2.50
2023-05-12T14:04:45.016Z,2.40
2023-05-12T14:07:13.294Z,2.03
2023-05-12T14:09:42.041Z,2.15
2023-05-12T14:12:09.949Z,2.28
2023-05-12T14:14:37.896Z,2.45
2023-05-12T14:17:05.894Z,2.65
2023-05-12T14:19:35.122Z,2.08
2023-05-12T14:22:05.844Z,2.00
2023-05-12T14:24:38.001Z,2.30
2023-05-12T14:27:06.422Z,2.80
2023-05-12T14:29:34.309Z,2.80
2023-05-12T14:32:03.516Z,2.35
2023-05-12T14:34:32.337Z,2.28
2023-05-12T14:37:00.137Z,2.63
2023-05-12T14:39:28.012Z,2.20
2023-05-12T14:41:55.857Z,2.40
2023-05-12T14:44:23.656Z,2.40
2023-05-12T14:46:51.483Z,2.33
2023-05-12T14:49:21.661Z,2.60
2023-05-12T14:51:49.978Z,2.60
2023-05-12T14:54:25.272Z,2.20
2023-05-12T14:56:53.862Z,2.78
2023-05-12T14:59:22.135Z,2.10
2023-05-12T15:01:50.074Z,2.15
2023-05-12T15:04:17.976Z,2.35
2023-05-12T15:06:45.928Z,2.40
2023-05-12T15:09:13.739Z,2.50
2023-05-12T15:11:44.971Z,2.50
2023-05-12T15:14:13.345Z,2.35
2023-05-12T15:16:41.759Z,2.20
2023-05-12T15:19:09.958Z,2.20
2023-05-12T15:21:37.937Z,2.30
2023-05-12T15:24:06.807Z,2.15
2023-05-12T15:26:35.758Z,2.22
2023-05-12T15:29:05.089Z,2.30
2023-05-12T15:31:33.091Z,2.45
2023-05-12T15:34:01.007Z,2.53
2023-05-12T15:36:29.047Z,2.20
2023-05-12T15:38:57.055Z,2.20
2023-05-12T15:41:24.654Z,2.20
2023-05-12T15:43:52.419Z,2.28
2023-05-12T15:46:20.221Z,2.58
2023-05-12T15:48:49.739Z,3.40
2023-05-12T15:51:17.260Z,2.72
2023-05-12T15:53:45.893Z,2.42
2023-05-12T15:56:13.807Z,2.70
2023-05-12T15:58:41.541Z,2.30
2023-05-12T16:01:09.125Z,2.38
2023-05-12T16:03:36.908Z,2.60
2023-05-12T16:06:05.457Z,2.55
2023-05-12T16:08:34.394Z,2.80
2023-05-12T16:11:01.967Z,2.53
2023-05-12T16:13:29.736Z,2.78
2023-05-12T16:15:58.354Z,2.63
2023-05-12T16:18:27.084Z,2.45
2023-05-12T16:20:54.544Z,2.90
2023-05-12T16:23:21.999Z,2.40
2023-05-12T16:25:49.437Z,2.38
2023-05-12T16:28:17.552Z,2.30
2023-05-12T16:30:45.517Z,2.45
2023-05-12T16:33:13.361Z,2.45
2023-05-12T16:35:41.017Z,2.20
2023-05-12T16:38:08.543Z,2.50
2023-05-12T16:40:35.938Z,2.72
2023-05-12T16:43:03.450Z,2.30
2023-05-12T16:45:31.211Z,2.28
2023-05-12T16:47:58.687Z,2.60
2023-05-12T16:50:26.192Z,2.53
2023-05-12T16:52:54.053Z,2.90
2023-05-12T16:55:22.166Z,2.50
2023-05-12T16:57:50.130Z,3.47
2023-05-12T17:00:18.114Z,2.60
2023-05-12T17:02:46.001Z,2.78
2023-05-12T17:05:13.548Z,2.67
2023-05-12T17:07:41.102Z,2.78
2023-05-12T17:10:09.038Z,2.80
2023-05-12T17:12:37.231Z,2.72
2023-05-12T17:15:08.201Z,2.60
2023-05-12T17:17:36.660Z,3.70
2023-05-12T17:20:04.759Z,4.70
2023-05-12T17:22:33.015Z,6.25
2023-05-12T17:25:00.725Z,5.80
2023-05-12T17:27:28.333Z,42.20
2023-05-12T17:29:56.962Z,13.77
2023-05-12T17:32:24.524Z,17.70
2023-05-12T17:34:52.066Z,16.00
2023-05-12T17:37:19.811Z,12.75
2023-05-12T17:39:47.425Z,9.27
2023-05-12T17:42:14.865Z,7.25
2023-05-12T17:44:42.254Z,6.47
2023-05-12T17:47:14.063Z,6.30
2023-05-12T17:49:42.036Z,5.43
2023-05-12T17:52:09.490Z,4.90
2023-05-12T17:54:36.973Z,5.15
2023-05-12T17:57:04.604Z,4.15
2023-05-12T17:59:32.595Z,4.43
2023-05-12T18:02:00.802Z,3.92
2023-05-12T18:04:28.610Z,4.97
2023-05-12T18:06:57.603Z,5.10
2023-05-12T18:09:25.586Z,4.82
2023-05-12T18:11:53.802Z,4.90
2023-05-12T18:14:22.180Z,4.72
2023-05-12T18:16:49.688Z,4.93
2023-05-12T18:19:17.364Z,4.30
2023-05-12T18:21:44.995Z,5.28
2023-05-12T18:24:12.505Z,4.88
2023-05-12T18:26:40.243Z,6.32
2023-05-12T18:29:07.875Z,5.30
2023-05-12T18:31:36.660Z,4.72
2023-05-12T18:34:04.449Z,5.28
2023-05-12T18:36:32.632Z,4.50
2023-05-12T18:39:00.265Z,5.40
2023-05-12T18:41:28.047Z,4.85
2023-05-12T18:43:56.003Z,5.03
2023-05-12T18:46:23.731Z,4.38
2023-05-12T18:48:51.425Z,4.28
2023-05-12T18:51:19.022Z,4.65
2023-05-12T18:53:46.820Z,5.65
2023-05-12T18:56:14.841Z,5.35
2023-05-12T18:58:42.608Z,4.25
2023-05-12T19:01:10.184Z,8.30
2023-05-12T19:03:37.836Z,4.70
2023-05-12T19:06:05.505Z,5.25
2023-05-12T19:08:33.227Z,4.90
2023-05-12T19:11:01.030Z,5.07
2023-05-12T19:13:28.660Z,4.13
2023-05-12T19:15:56.192Z,4.25
2023-05-12T19:18:23.856Z,4.15
2023-05-12T19:20:51.474Z,3.47
2023-05-12T19:23:19.076Z,3.80
2023-05-12T19:25:46.508Z,3.72
2023-05-12T19:28:14.054Z,3.88
2023-05-12T19:30:41.604Z,3.92
2023-05-12T19:33:09.268Z,4.35
2023-05-12T19:35:36.851Z,3.67
2023-05-12T19:38:04.459Z,3.92
2023-05-12T19:40:32.682Z,3.90
2023-05-12T19:43:00.563Z,5.32
2023-05-12T19:45:29.233Z,3.30
2023-05-12T19:47:57.124Z,3.45
2023-05-12T19:50:24.633Z,4.60
2023-05-12T19:52:52.053Z,4.20
2023-05-12T19:55:20.082Z,4.10
2023-05-12T19:57:48.010Z,5.35
2023-05-12T20:00:15.970Z,4.53
2023-05-12T20:02:43.716Z,4.78
2023-05-12T20:05:11.455Z,5.10
2023-05-12T20:07:39.560Z,4.20
2023-05-12T20:10:08.169Z,4.55
2023-05-12T20:12:35.900Z,4.65
2023-05-12T20:15:03.874Z,4.10
2023-05-12T20:17:35.558Z,4.30
2023-05-12T20:20:04.508Z,4.28
2023-05-12T20:22:34.295Z,4.57
2023-05-12T20:25:04.638Z,4.75
2023-05-12T20:27:35.140Z,4.97
2023-05-12T20:30:02.788Z,4.53
2023-05-12T20:32:33.096Z,4.97
2023-05-12T20:35:00.679Z,4.95
2023-05-12T20:37:28.332Z,5.10
2023-05-12T20:39:56.120Z,5.00
2023-05-12T20:42:23.700Z,4.90
2023-05-12T20:44:51.261Z,4.60
2023-05-12T20:47:19.114Z,4.50
2023-05-12T20:49:46.789Z,5.05
2023-05-12T20:52:14.848Z,4.65
2023-05-12T20:54:42.343Z,4.60
2023-05-12T20:57:10.751Z,5.00
2023-05-12T20:59:38.293Z,4.90
2023-05-12T21:02:06.355Z,5.38
2023-05-12T21:04:33.932Z,5.07
2023-05-12T21:07:01.676Z,4.90
2023-05-12T21:09:29.424Z,5.13
2023-05-12T21:11:57.092Z,5.53
2023-05-12T21:14:24.749Z,4.85
2023-05-12T21:16:52.474Z,5.20
2023-05-12T21:19:20.286Z,5.07
2023-05-12T21:21:48.344Z,5.28
2023-05-12T21:24:15.980Z,4.85
2023-05-12T21:26:43.587Z,5.03
2023-05-12T21:29:11.262Z,5.30
2023-05-12T21:31:38.930Z,5.28
2023-05-12T21:34:06.662Z,5.90
2023-05-12T21:36:34.503Z,4.72
2023-05-12T21:39:02.219Z,5.40
2023-05-12T21:41:30.542Z,4.93
2023-05-12T21:43:58.244Z,4.75
2023-05-12T21:46:25.844Z,5.45
2023-05-12T21:48:53.479Z,5.00
2023-05-12T21:51:21.243Z,5.63
2023-05-12T21:53:48.829Z,5.72
2023-05-12T21:56:16.927Z,5.93
2023-05-12T21:58:44.587Z,5.30
2023-05-12T22:01:12.238Z,5.88
2023-05-12T22:03:40.184Z,4.72
2023-05-12T22:06:08.405Z,5.22
2023-05-12T22:08:36.096Z,5.53
2023-05-12T22:11:03.838Z,5.32
2023-05-12T22:13:31.951Z,5.63
2023-05-12T22:16:00.336Z,5.28
2023-05-12T22:18:27.840Z,4.82
2023-05-12T22:20:55.202Z,4.72
2023-05-12T22:23:22.621Z,5.93
2023-05-12T22:25:50.021Z,4.68
2023-05-12T22:28:18.288Z,5.28
2023-05-12T22:30:45.832Z,5.63
2023-05-12T22:33:13.376Z,5.88
2023-05-12T22:35:40.768Z,5.90
2023-05-12T22:38:08.224Z,5.47
2023-05-12T22:40:35.741Z,5.40
2023-05-12T22:43:03.450Z,5.30
2023-05-12T22:45:31.275Z,5.65
2023-05-12T22:47:58.700Z,5.10
2023-05-12T22:50:26.184Z,5.18
2023-05-12T22:52:57.504Z,5.60
2023-05-12T22:55:30.550Z,5.75
2023-05-12T22:57:58.569Z,5.32
2023-05-12T23:00:27.060Z,5.90
2023-05-12T23:02:55.016Z,5.88
2023-05-12T23:05:22.488Z,5.07
2023-05-12T23:07:49.921Z,5.43
2023-05-12T23:10:17.419Z,5.70
2023-05-12T23:12:44.789Z,5.13
2023-05-12T23:15:12.410Z,5.03
2023-05-12T23:17:39.958Z,5.38
2023-05-12T23:20:08.364Z,6.15
2023-05-12T23:22:35.858Z,6.30
2023-05-12T23:25:03.310Z,7.05
2023-05-12T23:27:31.127Z,7.35
2023-05-12T23:29:58.592Z,6.68
2023-05-12T23:32:26.197Z,7.10
2023-05-12T23:34:53.806Z,6.00
2023-05-12T23:37:21.209Z,5.53
2023-05-12T23:39:48.541Z,5.72
2023-05-12T23:42:17.384Z,6.45
2023-05-12T23:44:44.914Z,6.60
2023-05-12T23:47:12.382Z,7.93
2023-05-12T23:49:39.768Z,7.72
2023-05-12T23:52:07.346Z,7.90
2023-05-12T23:54:34.660Z,7.45
2023-05-12T23:57:03.436Z,7.05
2023-05-12T23:59:31.190Z,6.57
